createdAt,value
2023-05-05T00:01:33.193Z,6.44
2023-05-05T00:04:00.049Z,6.43
2023-05-05T00:06:28.457Z,6.42
2023-05-05T00:08:56.278Z,6.43
2023-05-05T00:11:23.091Z,6.44
2023-05-05T00:13:49.884Z,6.43
2023-05-05T00:16:17.080Z,6.39
2023-05-05T00:18:44.498Z,6.36
2023-05-05T00:21:11.266Z,6.34
2023-05-05T00:23:38.009Z,6.34
2023-05-05T00:26:04.704Z,6.35
2023-05-05T00:28:31.539Z,6.37
2023-05-05T00:30:58.876Z,6.38
2023-05-05T00:33:25.926Z,6.39
2023-05-05T00:35:52.718Z,6.40
2023-05-05T00:38:19.428Z,6.42
2023-05-05T00:40:46.220Z,6.41
2023-05-05T00:43:13.024Z,6.45
2023-05-05T00:45:42.889Z,6.49
2023-05-05T00:48:11.170Z,6.55
2023-05-05T00:50:37.979Z,6.59
2023-05-05T00:53:06.098Z,6.63
2023-05-05T00:55:33.757Z,6.66
2023-05-05T00:58:01.132Z,6.71
2023-05-05T01:00:28.121Z,6.76
2023-05-05T01:02:55.440Z,6.79
2023-05-05T01:05:22.636Z,6.76
2023-05-05T01:08:06.979Z,6.72
2023-05-05T01:10:38.746Z,6.68
2023-05-05T01:13:09.530Z,6.68
2023-05-05T01:15:37.880Z,6.69
2023-05-05T01:18:23.339Z,6.70
2023-05-05T01:21:02.016Z,6.71
2023-05-05T01:23:45.358Z,6.73
2023-05-05T01:26:37.490Z,6.76
2023-05-05T01:29:26.059Z,6.79
2023-05-05T01:31:53.792Z,6.82
2023-05-05T01:34:26.483Z,6.84
2023-05-05T01:36:57.539Z,6.87
2023-05-05T01:39:24.945Z,6.91
2023-05-05T01:41:51.779Z,6.95
2023-05-05T01:44:19.922Z,7.01
2023-05-05T01:46:47.820Z,7.08
2023-05-05T01:49:14.536Z,7.14
2023-05-05T01:51:41.212Z,7.19
2023-05-05T01:54:08.432Z,7.25
2023-05-05T01:56:35.281Z,7.31
2023-05-05T01:59:02.238Z,7.39
2023-05-05T02:01:29.013Z,7.44
2023-05-05T02:03:59.186Z,7.44
2023-05-05T02:06:26.875Z,7.42
2023-05-05T02:08:53.565Z,7.38
2023-05-05T02:11:21.539Z,7.34
2023-05-05T02:13:48.649Z,7.29
2023-05-05T02:16:15.847Z,7.24
2023-05-05T02:18:42.688Z,7.19
2023-05-05T02:21:09.384Z,7.14
2023-05-05T02:23:36.433Z,7.10
2023-05-05T02:26:09.672Z,7.05
2023-05-05T02:28:47.192Z,7.01
2023-05-05T02:31:14.026Z,6.97
2023-05-05T02:33:41.004Z,6.94
2023-05-05T02:36:12.694Z,6.94
2023-05-05T02:38:46.706Z,6.95
2023-05-05T02:41:16.614Z,6.95
2023-05-05T02:43:44.135Z,6.96
2023-05-05T02:46:11.137Z,6.97
2023-05-05T02:48:38.098Z,6.98
2023-05-05T02:51:05.832Z,6.99
2023-05-05T02:53:35.599Z,6.98
2023-05-05T02:56:21.022Z,6.97
2023-05-05T02:59:09.293Z,6.95
2023-05-05T03:01:53.180Z,6.91
2023-05-05T03:04:28.770Z,6.88
2023-05-05T03:07:00.233Z,6.88
2023-05-05T03:09:28.124Z,6.88
2023-05-05T03:12:01.173Z,6.87
2023-05-05T03:14:32.091Z,6.89
2023-05-05T03:17:00.571Z,6.89
2023-05-05T03:19:27.284Z,6.88
2023-05-05T03:21:55.704Z,6.88
2023-05-05T03:24:22.961Z,6.90
2023-05-05T03:26:58.625Z,6.96
2023-05-05T03:29:30.137Z,7.08
2023-05-05T03:31:58.171Z,7.24
2023-05-05T03:34:25.285Z,7.41
2023-05-05T03:36:52.093Z,7.54
2023-05-05T03:39:19.348Z,7.62
2023-05-05T03:41:46.217Z,7.70
2023-05-05T03:44:13.179Z,7.82
2023-05-05T03:46:39.891Z,7.94
2023-05-05T03:49:09.827Z,8.12
2023-05-05T03:51:37.157Z,8.37
2023-05-05T03:54:03.882Z,8.66
2023-05-05T03:56:30.721Z,8.97
2023-05-05T03:58:57.436Z,9.28
2023-05-05T04:01:24.330Z,9.63
2023-05-05T04:03:51.331Z,10.03
2023-05-05T04:06:18.139Z,10.34
2023-05-05T04:08:44.925Z,10.60
2023-05-05T04:11:11.719Z,10.91
2023-05-05T04:13:39.253Z,11.22
2023-05-05T04:16:06.337Z,11.51
2023-05-05T04:18:33.101Z,11.81
2023-05-05T04:21:00.251Z,12.13
2023-05-05T04:23:27.361Z,12.45
2023-05-05T04:25:54.240Z,12.75
2023-05-05T04:28:21.977Z,13.09
2023-05-05T04:30:49.160Z,13.52
2023-05-05T04:33:16.047Z,13.96
2023-05-05T04:35:42.862Z,14.34
2023-05-05T04:38:09.847Z,14.70
2023-05-05T04:40:41.278Z,15.06
2023-05-05T04:43:08.637Z,15.34
2023-05-05T04:45:35.638Z,15.56
2023-05-05T04:48:04.320Z,15.72
2023-05-05T04:50:31.625Z,15.98
2023-05-05T04:52:58.404Z,16.25
2023-05-05T04:55:25.497Z,16.55
2023-05-05T04:57:52.229Z,16.83
2023-05-05T05:00:19.057Z,17.04
2023-05-05T05:02:45.908Z,17.26
2023-05-05T05:05:12.785Z,17.47
2023-05-05T05:07:39.589Z,17.67
2023-05-05T05:10:07.129Z,17.95
2023-05-05T05:12:34.137Z,18.23
2023-05-05T05:15:00.911Z,18.54
2023-05-05T05:17:27.752Z,18.87
2023-05-05T05:19:55.458Z,19.21
2023-05-05T05:22:22.498Z,19.52
2023-05-05T05:24:49.510Z,19.83
2023-05-05T05:27:16.284Z,20.07
2023-05-05T05:29:44.124Z,20.34
2023-05-05T05:32:11.164Z,20.72
2023-05-05T05:34:38.290Z,21.17
2023-05-05T05:37:05.564Z,21.59
2023-05-05T05:39:32.592Z,21.98
2023-05-05T05:41:59.544Z,22.36
2023-05-05T05:44:26.430Z,22.72
2023-05-05T05:46:53.257Z,23.01
2023-05-05T05:49:20.127Z,23.23
2023-05-05T05:51:47.079Z,23.41
2023-05-05T05:54:13.802Z,23.69
2023-05-05T05:56:40.652Z,23.96
2023-05-05T05:59:10.700Z,24.20
2023-05-05T06:01:38.078Z,24.55
2023-05-05T06:04:04.999Z,25.03
2023-05-05T06:06:31.993Z,25.43
2023-05-05T06:08:58.884Z,25.73
2023-05-05T06:11:26.171Z,26.04
2023-05-05T06:13:52.859Z,26.29
2023-05-05T06:16:19.727Z,26.49
2023-05-05T06:18:47.350Z,26.57
2023-05-05T06:21:14.250Z,26.70
2023-05-05T06:23:42.132Z,27.00
2023-05-05T06:26:09.179Z,27.14
2023-05-05T06:28:35.957Z,27.22
2023-05-05T06:31:02.822Z,27.45
2023-05-05T06:33:29.675Z,27.83
2023-05-05T06:35:56.375Z,28.40
2023-05-05T06:38:23.092Z,28.85
2023-05-05T06:40:50.334Z,28.89
2023-05-05T06:43:17.157Z,29.00
2023-05-05T06:45:47.582Z,29.20
2023-05-05T06:48:14.427Z,29.48
2023-05-05T06:50:41.221Z,29.64
2023-05-05T06:53:08.034Z,29.80
2023-05-05T06:55:34.901Z,30.00
2023-05-05T06:58:01.841Z,30.20
2023-05-05T07:00:28.662Z,30.62
2023-05-05T07:02:55.500Z,31.07
2023-05-05T07:05:22.442Z,31.26
2023-05-05T07:07:55.836Z,31.49
2023-05-05T07:10:23.280Z,31.61
2023-05-05T07:12:50.368Z,31.62
2023-05-05T07:15:28.097Z,31.68
2023-05-05T07:17:56.486Z,31.96
2023-05-05T07:20:23.460Z,32.35
2023-05-05T07:22:50.422Z,32.54
2023-05-05T07:25:17.382Z,32.93
2023-05-05T07:27:44.209Z,33.30
2023-05-05T07:30:14.743Z,33.47
2023-05-05T07:32:44.407Z,33.38
2023-05-05T07:35:11.356Z,33.30
2023-05-05T07:37:38.151Z,33.30
2023-05-05T07:40:05.931Z,33.36
2023-05-05T07:42:32.935Z,33.42
2023-05-05T07:44:59.716Z,33.61
2023-05-05T07:47:26.798Z,33.94
2023-05-05T07:49:53.947Z,34.00
2023-05-05T07:52:30.049Z,34.14
2023-05-05T07:55:04.923Z,34.42
2023-05-05T07:57:31.718Z,34.42
2023-05-05T07:59:58.410Z,34.34
2023-05-05T08:02:25.344Z,34.36
2023-05-05T08:04:52.166Z,34.69
2023-05-05T08:07:18.944Z,35.04
2023-05-05T08:09:45.772Z,35.09
2023-05-05T08:12:12.656Z,35.22
2023-05-05T08:14:40.517Z,35.62
2023-05-05T08:17:07.470Z,36.08
2023-05-05T08:19:34.531Z,36.24
2023-05-05T08:22:01.763Z,36.19
2023-05-05T08:24:28.744Z,36.06
2023-05-05T08:26:56.720Z,35.96
2023-05-05T08:29:23.647Z,36.03
2023-05-05T08:31:50.406Z,36.32
2023-05-05T08:34:17.108Z,36.63
2023-05-05T08:36:43.864Z,36.79
2023-05-05T08:39:10.937Z,36.86
2023-05-05T08:41:37.816Z,36.86
2023-05-05T08:44:04.591Z,36.78
2023-05-05T08:46:31.469Z,36.61
2023-05-05T08:48:58.470Z,36.40
2023-05-05T08:51:25.922Z,36.33
2023-05-05T08:54:02.557Z,36.36
2023-05-05T08:56:33.825Z,36.14
2023-05-05T08:59:01.591Z,36.06
2023-05-05T09:01:28.523Z,36.23
2023-05-05T09:03:55.929Z,36.40
2023-05-05T09:06:23.571Z,36.51
2023-05-05T09:08:50.424Z,36.73
2023-05-05T09:11:17.165Z,36.97
2023-05-05T09:13:44.002Z,37.18
2023-05-05T09:16:10.929Z,37.39
2023-05-05T09:18:38.023Z,37.45
2023-05-05T09:21:24.775Z,37.42
2023-05-05T09:24:08.111Z,37.39
2023-05-05T09:26:37.050Z,37.47
2023-05-05T09:29:04.088Z,37.54
2023-05-05T09:31:31.604Z,37.51
2023-05-05T09:34:01.044Z,37.50
2023-05-05T09:36:50.397Z,37.74
2023-05-05T09:39:18.260Z,37.86
2023-05-05T09:41:45.223Z,37.60
2023-05-05T09:44:12.505Z,37.69
2023-05-05T09:46:49.181Z,37.77
2023-05-05T09:49:19.296Z,37.57
2023-05-05T09:51:46.658Z,37.58
2023-05-05T09:54:24.091Z,37.84
2023-05-05T09:56:50.979Z,38.10
2023-05-05T09:59:17.946Z,38.48
2023-05-05T10:01:44.724Z,38.72
2023-05-05T10:04:25.032Z,38.80
2023-05-05T10:06:51.913Z,38.68
2023-05-05T10:09:18.673Z,38.40
2023-05-05T10:11:46.412Z,37.48
2023-05-05T10:14:14.788Z,36.47
2023-05-05T10:16:51.223Z,34.90
2023-05-05T10:19:19.320Z,33.95
2023-05-05T10:21:48.300Z,32.71
2023-05-05T10:24:47.238Z,31.33
2023-05-05T10:27:20.635Z,29.87
2023-05-05T10:30:07.572Z,28.83
2023-05-05T10:35:22.299Z,27.06
2023-05-05T10:37:49.240Z,26.45
2023-05-05T10:40:16.676Z,26.02
2023-05-05T10:42:43.555Z,25.62
2023-05-05T10:45:10.447Z,25.19
2023-05-05T10:47:37.762Z,24.75
2023-05-05T10:50:30.006Z,24.33
2023-05-05T10:53:32.711Z,23.88
2023-05-05T10:56:11.733Z,23.47
2023-05-05T10:58:55.502Z,23.19
2023-05-05T11:01:43.823Z,22.92
2023-05-05T11:04:16.961Z,22.71
2023-05-05T11:07:10.433Z,22.54
2023-05-05T11:10:10.778Z,22.40
2023-05-05T11:12:57.948Z,22.18
2023-05-05T11:15:27.909Z,21.98
2023-05-05T11:17:58.194Z,21.91
2023-05-05T11:20:37.650Z,21.94
2023-05-05T11:23:04.873Z,21.94
2023-05-05T11:25:35.319Z,21.94
2023-05-05T11:28:05.768Z,21.79
2023-05-05T11:30:32.654Z,21.58
2023-05-05T11:33:30.686Z,21.44
2023-05-05T11:36:06.488Z,21.22
2023-05-05T11:38:48.754Z,20.96
2023-05-05T11:41:33.715Z,20.73
2023-05-05T11:44:19.750Z,20.49
2023-05-05T11:46:52.710Z,20.23
2023-05-05T11:49:32.462Z,20.07
2023-05-05T11:52:01.138Z,19.90
2023-05-05T11:54:28.032Z,19.83
2023-05-05T11:57:04.998Z,19.83
2023-05-05T11:59:32.332Z,19.78
2023-05-05T12:01:59.243Z,19.72
2023-05-05T12:04:26.120Z,19.72
2023-05-05T12:06:52.841Z,19.74
2023-05-05T12:09:21.265Z,19.77
2023-05-05T12:11:52.524Z,19.82
2023-05-05T12:14:19.471Z,19.92
2023-05-05T12:16:55.953Z,20.05
2023-05-05T12:19:22.804Z,20.14
2023-05-05T12:21:49.578Z,20.20
2023-05-05T12:24:16.605Z,20.25
2023-05-05T12:26:43.375Z,20.24
2023-05-05T12:29:10.085Z,20.21
2023-05-05T12:31:41.514Z,20.15
2023-05-05T12:34:09.084Z,20.07
2023-05-05T12:36:36.321Z,20.01
2023-05-05T12:39:05.073Z,20.00
2023-05-05T12:41:32.325Z,19.97
2023-05-05T12:43:59.674Z,19.97
2023-05-05T12:46:26.712Z,19.93
2023-05-05T12:49:08.058Z,19.90
2023-05-05T12:51:36.061Z,19.82
2023-05-05T12:54:05.412Z,19.78
2023-05-05T12:56:45.836Z,19.80
2023-05-05T12:59:18.078Z,19.81
2023-05-05T13:01:52.156Z,19.81
2023-05-05T13:04:19.563Z,19.78
2023-05-05T13:06:47.618Z,19.72
2023-05-05T13:09:23.693Z,19.65
2023-05-05T13:11:50.484Z,19.65
2023-05-05T13:14:17.210Z,19.68
2023-05-05T13:16:44.059Z,19.69
2023-05-05T13:19:10.876Z,19.74
2023-05-05T13:21:37.567Z,19.82
2023-05-05T13:24:21.211Z,19.88
2023-05-05T13:26:51.777Z,19.89
2023-05-05T13:29:18.645Z,19.87
2023-05-05T13:31:45.578Z,19.89
2023-05-05T13:34:12.340Z,19.88
2023-05-05T13:36:39.085Z,19.82
2023-05-05T13:39:05.854Z,19.78
2023-05-05T13:41:32.633Z,19.72
2023-05-05T13:43:59.348Z,19.61
2023-05-05T13:46:26.258Z,19.48
2023-05-05T13:48:56.653Z,19.39
2023-05-05T13:51:23.670Z,19.28
2023-05-05T13:53:50.505Z,19.22
2023-05-05T13:56:19.120Z,19.17
2023-05-05T13:58:46.385Z,19.11
2023-05-05T14:01:13.290Z,19.02
2023-05-05T14:03:40.436Z,18.92
2023-05-05T14:06:09.097Z,18.84
2023-05-05T14:08:35.844Z,18.80
2023-05-05T14:11:03.274Z,18.76
2023-05-05T14:13:30.033Z,18.70
2023-05-05T14:15:58.345Z,18.61
2023-05-05T14:18:28.497Z,18.50
2023-05-05T14:20:55.382Z,18.45
2023-05-05T14:23:22.085Z,18.42
2023-05-05T14:25:48.850Z,18.38
2023-05-05T14:28:15.598Z,18.34
2023-05-05T14:30:42.308Z,18.28
2023-05-05T14:33:08.976Z,18.21
2023-05-05T14:35:35.753Z,18.15
2023-05-05T14:38:02.515Z,18.08
2023-05-05T14:40:30.325Z,18.03
2023-05-05T14:43:00.201Z,17.97
2023-05-05T14:45:29.548Z,17.96
2023-05-05T14:47:56.372Z,17.95
2023-05-05T14:50:23.294Z,17.91
2023-05-05T14:52:50.515Z,17.87
2023-05-05T14:55:17.288Z,17.85
2023-05-05T14:57:44.096Z,17.84
2023-05-05T15:00:11.295Z,17.83
2023-05-05T15:02:38.497Z,17.78
2023-05-05T15:05:06.616Z,17.73
2023-05-05T15:07:33.969Z,17.64
2023-05-05T15:10:03.259Z,17.57
2023-05-05T15:12:30.051Z,17.45
2023-05-05T15:14:56.804Z,17.34
2023-05-05T15:17:23.578Z,17.23
2023-05-05T15:19:50.398Z,17.13
2023-05-05T15:22:17.383Z,17.02
2023-05-05T15:24:44.715Z,16.91
2023-05-05T15:27:11.685Z,16.78
2023-05-05T15:29:38.373Z,16.68
2023-05-05T15:32:06.026Z,16.59
2023-05-05T15:34:32.867Z,16.50
2023-05-05T15:36:59.625Z,16.42
2023-05-05T15:39:26.369Z,16.31
2023-05-05T15:41:53.086Z,16.21
2023-05-05T15:44:21.133Z,16.11
2023-05-05T15:46:50.220Z,16.02
2023-05-05T15:49:17.285Z,15.93
2023-05-05T15:51:44.087Z,15.85
2023-05-05T15:54:10.959Z,15.76
2023-05-05T15:56:37.780Z,15.70
2023-05-05T15:59:07.493Z,15.65
2023-05-05T16:01:36.305Z,15.62
2023-05-05T16:04:03.676Z,15.60
2023-05-05T16:06:30.606Z,15.58
2023-05-05T16:08:58.695Z,15.56
2023-05-05T16:11:33.606Z,15.56
2023-05-05T16:14:00.627Z,15.52
2023-05-05T16:16:27.436Z,15.45
2023-05-05T16:18:55.088Z,15.39
2023-05-05T16:21:22.307Z,15.35
2023-05-05T16:23:49.629Z,15.30
2023-05-05T16:26:16.514Z,15.25
2023-05-05T16:28:43.256Z,15.20
2023-05-05T16:31:11.069Z,15.14
2023-05-05T16:33:43.683Z,15.08
2023-05-05T16:36:11.803Z,15.01
2023-05-05T16:38:39.589Z,14.96
2023-05-05T16:41:09.337Z,14.95
2023-05-05T16:43:37.278Z,14.94
2023-05-05T16:46:04.265Z,14.88
2023-05-05T16:48:31.077Z,14.82
2023-05-05T16:50:58.144Z,14.78
2023-05-05T16:53:25.549Z,14.76
2023-05-05T16:55:53.052Z,14.73
2023-05-05T16:58:23.012Z,14.70
2023-05-05T17:00:50.403Z,14.68
2023-05-05T17:03:18.077Z,14.66
2023-05-05T17:05:46.629Z,14.63
2023-05-05T17:08:15.291Z,14.59
2023-05-05T17:10:42.277Z,14.55
2023-05-05T17:13:10.065Z,14.50
2023-05-05T17:15:37.546Z,14.44
2023-05-05T17:18:05.686Z,14.37
2023-05-05T17:20:33.399Z,14.28
2023-05-05T17:23:02.099Z,14.19
2023-05-05T17:25:29.136Z,14.10
2023-05-05T17:27:56.223Z,14.03
2023-05-05T17:30:23.201Z,13.95
2023-05-05T17:32:49.960Z,13.86
2023-05-05T17:35:16.801Z,13.76
2023-05-05T17:37:44.367Z,13.69
2023-05-05T17:40:18.752Z,13.63
2023-05-05T17:42:46.008Z,13.58
2023-05-05T17:45:12.920Z,13.54
2023-05-05T17:47:39.814Z,13.49
2023-05-05T17:50:07.061Z,13.44
2023-05-05T17:52:34.058Z,13.41
2023-05-05T17:55:00.939Z,13.35
2023-05-05T17:57:28.723Z,13.29
2023-05-05T17:59:55.693Z,13.24
2023-05-05T18:02:24.089Z,13.19
2023-05-05T18:04:56.427Z,13.14
2023-05-05T18:07:23.887Z,13.08
2023-05-05T18:09:50.792Z,13.03
2023-05-05T18:12:17.541Z,12.98
2023-05-05T18:14:44.812Z,12.93
2023-05-05T18:17:14.908Z,12.89
2023-05-05T18:19:46.168Z,12.84
2023-05-05T18:22:17.338Z,12.77
2023-05-05T18:24:46.230Z,12.69
2023-05-05T18:27:13.111Z,12.60
2023-05-05T18:29:43.119Z,12.53
2023-05-05T18:32:10.245Z,12.44
2023-05-05T18:34:37.702Z,12.36
2023-05-05T18:37:08.045Z,12.30
2023-05-05T18:39:38.965Z,12.23
2023-05-05T18:42:07.875Z,12.18
2023-05-05T18:44:37.590Z,12.11
2023-05-05T18:47:04.895Z,12.05
2023-05-05T18:49:32.495Z,11.97
2023-05-05T18:51:59.377Z,11.89
2023-05-05T18:54:26.534Z,11.84
2023-05-05T18:56:53.376Z,11.78
2023-05-05T18:59:20.859Z,11.73
2023-05-05T19:01:50.879Z,11.70
2023-05-05T19:04:30.112Z,11.68
2023-05-05T19:06:57.711Z,11.66
2023-05-05T19:09:24.436Z,11.63
2023-05-05T19:11:51.300Z,11.61
2023-05-05T19:14:18.840Z,11.60
2023-05-05T19:16:46.316Z,11.59
2023-05-05T19:19:13.153Z,11.56
2023-05-05T19:21:40.006Z,11.52
2023-05-05T19:24:09.319Z,11.45
2023-05-05T19:26:36.704Z,11.38
2023-05-05T19:29:03.756Z,11.31
2023-05-05T19:31:31.307Z,11.26
2023-05-05T19:34:03.369Z,11.21
2023-05-05T19:36:34.051Z,11.17
2023-05-05T19:39:01.848Z,11.15
2023-05-05T19:41:29.923Z,11.14
2023-05-05T19:43:57.958Z,11.13
2023-05-05T19:46:26.650Z,11.11
2023-05-05T19:48:53.728Z,11.06
2023-05-05T19:51:20.662Z,11.01
2023-05-05T19:53:47.456Z,10.97
2023-05-05T19:56:14.305Z,10.94
2023-05-05T19:58:58.933Z,10.89
2023-05-05T20:01:26.424Z,10.85
2023-05-05T20:03:54.836Z,10.80
2023-05-05T20:06:22.329Z,10.76
2023-05-05T20:08:49.239Z,10.72
2023-05-05T20:11:16.226Z,10.72
2023-05-05T20:13:43.245Z,10.73
2023-05-05T20:16:10.218Z,10.74
2023-05-05T20:18:37.045Z,10.74
2023-05-05T20:21:03.905Z,10.73
2023-05-05T20:23:30.784Z,10.71
2023-05-05T20:25:57.835Z,10.68
2023-05-05T20:28:24.683Z,10.64
2023-05-05T20:30:51.648Z,10.60
2023-05-05T20:33:18.520Z,10.56
2023-05-05T20:35:45.336Z,10.51
2023-05-05T20:38:12.110Z,10.47
2023-05-05T20:40:39.733Z,10.39
2023-05-05T20:43:06.551Z,10.30
2023-05-05T20:45:37.112Z,10.20
2023-05-05T20:48:04.779Z,10.13
2023-05-05T20:50:31.877Z,10.07
2023-05-05T20:52:58.746Z,10.00
2023-05-05T20:55:25.648Z,9.92
2023-05-05T20:57:52.529Z,9.84
2023-05-05T21:00:19.368Z,9.76
2023-05-05T21:02:46.338Z,9.71
2023-05-05T21:05:14.067Z,9.67
2023-05-05T21:07:40.898Z,9.61
2023-05-05T21:10:08.290Z,9.54
2023-05-05T21:12:35.520Z,9.48
2023-05-05T21:15:02.594Z,9.40
2023-05-05T21:17:29.462Z,9.34
2023-05-05T21:19:56.915Z,9.28
2023-05-05T21:22:23.626Z,9.21
2023-05-05T21:24:50.749Z,9.15
2023-05-05T21:27:17.538Z,9.09
2023-05-05T21:29:44.239Z,9.03
2023-05-05T21:32:11.408Z,9.00
2023-05-05T21:34:38.786Z,8.94
2023-05-05T21:37:06.084Z,8.87
2023-05-05T21:39:33.283Z,8.79
2023-05-05T21:42:00.386Z,8.73
2023-05-05T21:44:28.271Z,8.67
2023-05-05T21:46:55.658Z,8.62
2023-05-05T21:49:23.978Z,8.59
2023-05-05T21:51:50.764Z,8.54
2023-05-05T21:54:17.499Z,8.51
2023-05-05T21:56:44.257Z,8.47
2023-05-05T21:59:11.112Z,8.43
2023-05-05T22:01:37.909Z,8.37
2023-05-05T22:04:05.243Z,8.29
2023-05-05T22:06:32.547Z,8.22
2023-05-05T22:08:59.390Z,8.16
2023-05-05T22:11:26.908Z,8.12
2023-05-05T22:13:53.844Z,8.08
2023-05-05T22:16:20.745Z,8.02
2023-05-05T22:18:47.537Z,7.98
2023-05-05T22:21:14.232Z,7.95
2023-05-05T22:23:43.814Z,7.91
2023-05-05T22:26:10.631Z,7.88
2023-05-05T22:28:38.218Z,7.87
2023-05-05T22:31:05.022Z,7.84
2023-05-05T22:33:32.047Z,7.83
2023-05-05T22:35:58.780Z,7.80
2023-05-05T22:38:25.927Z,7.77
2023-05-05T22:40:53.007Z,7.72
2023-05-05T22:43:20.787Z,7.68
2023-05-05T22:45:47.900Z,7.65
2023-05-05T22:48:15.065Z,7.63
2023-05-05T22:50:41.905Z,7.62
2023-05-05T22:53:08.693Z,7.61
2023-05-05T22:55:36.059Z,7.61
2023-05-05T22:58:02.740Z,7.61
2023-05-05T23:00:29.917Z,7.62
2023-05-05T23:02:56.798Z,7.59
2023-05-05T23:05:23.570Z,7.54
2023-05-05T23:07:50.343Z,7.49
2023-05-05T23:10:17.108Z,7.45
2023-05-05T23:12:43.822Z,7.41
2023-05-05T23:15:11.352Z,7.35
2023-05-05T23:17:38.355Z,7.32
2023-05-05T23:20:06.286Z,7.32
2023-05-05T23:22:33.015Z,7.31
2023-05-05T23:24:59.723Z,7.27
2023-05-05T23:27:28.625Z,7.25
2023-05-05T23:29:57.581Z,7.23
2023-05-05T23:34:55.332Z,7.20
2023-05-05T23:37:23.588Z,7.17
2023-05-05T23:39:51.083Z,7.11
2023-05-05T23:42:18.517Z,7.05
2023-05-05T23:44:45.513Z,7.00
2023-05-05T23:47:12.282Z,6.98
2023-05-05T23:49:39.015Z,6.94
2023-05-05T23:52:05.865Z,6.91
2023-05-05T23:54:32.595Z,6.86
2023-05-05T23:57:00.287Z,6.83
2023-05-05T23:59:26.988Z,6.81
